createdAt,value
2023-03-07T00:00:34.528Z,79.51
2023-03-07T00:02:46.347Z,79.63
2023-03-07T00:04:38.294Z,79.87
2023-03-07T00:06:40.244Z,79.62
2023-03-07T00:08:42.092Z,79.57
2023-03-07T00:10:43.580Z,79.74
2023-03-07T00:12:45.101Z,79.71
2023-03-07T00:14:46.745Z,79.52
2023-03-07T00:16:48.127Z,79.49
2023-03-07T00:18:49.179Z,79.23
2023-03-07T00:20:50.606Z,79.06
2023-03-07T00:22:52.162Z,79.15
2023-03-07T00:24:53.241Z,79.17
2023-03-07T00:26:54.760Z,79.33
2023-03-07T00:28:56.722Z,79.06
2023-03-07T00:30:58.740Z,79.31
2023-03-07T00:35:01.664Z,79.54
2023-03-07T00:37:03.095Z,79.4
2023-03-07T00:39:05.085Z,79.31
2023-03-07T00:41:06.345Z,79.3
2023-03-07T00:43:07.834Z,79.59
2023-03-07T00:45:09.042Z,79.14
2023-03-07T00:47:10.591Z,79.05
2023-03-07T00:49:12.145Z,79.19
2023-03-07T00:51:13.204Z,79.02
2023-03-07T00:53:15.087Z,78.78
2023-03-07T00:55:16.982Z,78.99
2023-03-07T00:57:18.833Z,78.92
2023-03-07T00:59:20.662Z,79.05
2023-03-07T01:01:22.075Z,78.93
2023-03-07T01:03:23.888Z,78.69
2023-03-07T01:05:25.475Z,78.95
2023-03-07T01:07:26.552Z,79.03
2023-03-07T01:09:28.509Z,78.81
2023-03-07T01:11:30.055Z,78.96
2023-03-07T01:13:31.335Z,79.31
2023-03-07T01:17:34.923Z,79.58
2023-03-07T01:19:36.889Z,79.75
2023-03-07T01:21:38.253Z,80.1
2023-03-07T01:23:39.861Z,80.54
2023-03-07T01:25:41.241Z,81.1
2023-03-07T01:27:42.653Z,81.54
2023-03-07T01:29:43.987Z,81.75
2023-03-07T01:31:45.463Z,81.85
2023-03-07T01:33:47.056Z,82.36
2023-03-07T01:35:48.453Z,82.9
2023-03-07T01:37:50.176Z,83.55
2023-03-07T01:39:51.986Z,84.09
2023-03-07T01:41:53.931Z,84.63
2023-03-07T01:43:55.319Z,84.81
2023-03-07T01:45:56.987Z,85.29
2023-03-07T01:47:58.515Z,85.83
2023-03-07T01:49:59.623Z,86.18
2023-03-07T01:52:01.423Z,86.49
2023-03-07T01:54:02.565Z,86.47
2023-03-07T01:56:03.786Z,86.27
2023-03-07T02:00:07.280Z,85.41
2023-03-07T02:02:08.392Z,85.3
2023-03-07T02:04:09.630Z,84.61
2023-03-07T02:06:10.956Z,84.34
2023-03-07T02:08:12.606Z,83.94
2023-03-07T02:10:13.726Z,83.77
2023-03-07T02:12:14.802Z,83.36
2023-03-07T02:14:16.386Z,82.82
2023-03-07T02:16:18.536Z,83.32
2023-03-07T02:18:19.450Z,83
2023-03-07T02:20:21.029Z,83.21
2023-03-07T02:22:22.854Z,83.35
2023-03-07T02:24:24.724Z,83.57
2023-03-07T02:26:26.206Z,83.28
2023-03-07T02:28:27.794Z,83.33
2023-03-07T02:32:30.311Z,84
2023-03-07T02:34:32.253Z,84.19
2023-03-07T02:36:34.202Z,84.5
2023-03-07T02:38:35.827Z,84.76
2023-03-07T02:42:39.164Z,85.11
2023-03-07T02:44:40.457Z,85.54
2023-03-07T02:46:42.292Z,85.81
2023-03-07T02:48:43.846Z,86.08
2023-03-07T02:50:45.405Z,86.43
2023-03-07T02:52:46.531Z,86.41
2023-03-07T02:54:47.781Z,86.58
2023-03-07T02:56:49.520Z,86.81
2023-03-07T02:58:50.874Z,86.91
2023-03-07T03:00:52.477Z,87.27
2023-03-07T03:02:54.160Z,87.64
2023-03-07T03:04:56.128Z,87.9
2023-03-07T03:06:57.429Z,88.22
2023-03-07T03:08:58.705Z,88.7
2023-03-07T03:11:00.152Z,89.01
2023-03-07T03:13:01.191Z,89.48
2023-03-07T03:15:02.441Z,89.63
2023-03-07T03:17:04.136Z,89.9
2023-03-07T03:19:05.785Z,90.09
2023-03-07T03:21:06.813Z,90.07
2023-03-07T03:25:09.548Z,90.31
2023-03-07T03:27:11.368Z,90.31
2023-03-07T03:29:13.055Z,90.62
2023-03-07T03:31:15.222Z,90.67
2023-03-07T03:33:16.424Z,90.67
2023-03-07T03:35:18.197Z,90.81
2023-03-07T03:37:19.848Z,90.97
2023-03-07T03:39:21.060Z,91.09
2023-03-07T03:41:22.579Z,91.28
2023-03-07T03:43:24.192Z,91.13
2023-03-07T03:45:26.121Z,91.24
2023-03-07T03:47:27.264Z,91.21
2023-03-07T03:49:29.209Z,91.34
2023-03-07T03:51:30.538Z,91.66
2023-03-07T03:53:31.803Z,91.77
2023-03-07T03:55:33.342Z,91.86
2023-03-07T03:57:35.180Z,91.99
2023-03-07T03:59:36.915Z,92.02
2023-03-07T04:01:38.151Z,92.19
2023-03-07T04:03:39.088Z,92.34
2023-03-07T04:05:40.605Z,92.43
2023-03-07T04:07:42.639Z,92.45
2023-03-07T04:09:43.717Z,92.13
2023-03-07T04:13:47.167Z,92.06
2023-03-07T04:15:48.992Z,92.25
2023-03-07T04:17:51.016Z,92.12
2023-03-07T04:19:52.985Z,92.21
2023-03-07T04:21:54.965Z,91.92
2023-03-07T04:23:56.590Z,91.94
2023-03-07T04:25:58.400Z,91.93
2023-03-07T04:28:00.279Z,91.52
2023-03-07T04:30:01.675Z,91.62
2023-03-07T04:32:03.553Z,91.62
2023-03-07T04:34:05.092Z,91.74
2023-03-07T04:36:06.438Z,91.79
2023-03-07T04:38:07.496Z,91.32
2023-03-07T04:40:08.939Z,91.31
2023-03-07T04:42:10.702Z,91.3
2023-03-07T04:44:12.582Z,91.4
2023-03-07T04:46:14.302Z,91.42
2023-03-07T04:48:15.595Z,91.36
2023-03-07T04:48:59.517Z,91.34
2023-03-07T04:51:01.473Z,91.37
2023-03-07T04:53:03.394Z,91.05
2023-03-07T04:55:04.687Z,91.06
2023-03-07T04:57:06.205Z,91.12
2023-03-07T05:01:09.843Z,91.15
2023-03-07T05:03:10.985Z,91.17
2023-03-07T05:05:12.433Z,91.07
2023-03-07T05:07:14.070Z,91.03
2023-03-07T05:09:15.228Z,91.07
2023-03-07T05:11:17.324Z,90.95
2023-03-07T05:13:18.841Z,90.84
2023-03-07T05:15:20.719Z,90.36
2023-03-07T05:17:22.116Z,90.37
2023-03-07T05:19:23.702Z,90.37
2023-03-07T05:21:25.366Z,90.32
2023-03-07T05:23:26.453Z,90.22
2023-03-07T05:25:27.620Z,89.81
2023-03-07T05:27:28.686Z,89.9
2023-03-07T05:29:30.115Z,89.93
2023-03-07T05:31:32.218Z,89.87
2023-03-07T05:33:33.443Z,89.9
2023-03-07T05:35:34.571Z,89.59
2023-03-07T05:37:36.294Z,89.52
2023-03-07T05:39:38.042Z,89.61
2023-03-07T05:43:40.922Z,89.62
2023-03-07T05:45:42.811Z,89.6
2023-03-07T05:47:44.453Z,89.71
2023-03-07T05:49:46.121Z,89.36
2023-03-07T05:51:47.920Z,88.87
2023-03-07T05:53:49.457Z,88.83
2023-03-07T05:55:50.610Z,88.92
2023-03-07T05:57:51.790Z,88.67
2023-03-07T05:59:53.386Z,88.45
2023-03-07T06:01:54.975Z,88.47
2023-03-07T06:03:56.427Z,88.16
2023-03-07T06:05:57.590Z,88.22
2023-03-07T06:07:59.338Z,88.38
2023-03-07T06:10:00.565Z,88.3
2023-03-07T06:12:01.863Z,88.17
2023-03-07T06:14:03.386Z,87.6
2023-03-07T06:16:05.265Z,87.65
2023-03-07T06:18:06.610Z,87.84
2023-03-07T06:20:08.397Z,87.9
2023-03-07T06:22:09.604Z,87.72
2023-03-07T06:26:13.167Z,87.51
2023-03-07T06:28:14.556Z,87.52
2023-03-07T06:30:15.917Z,87.07
2023-03-07T06:32:17.383Z,86.89
2023-03-07T06:34:19.332Z,86.78
2023-03-07T06:36:21.306Z,86.58
2023-03-07T06:38:22.912Z,86.46
2023-03-07T06:40:24.185Z,86.48
2023-03-07T06:42:25.696Z,86.19
2023-03-07T06:44:27.715Z,86.23
2023-03-07T06:46:28.903Z,86.01
2023-03-07T06:48:30.823Z,86.06
2023-03-07T06:50:35.331Z,85.67
2023-03-07T06:52:34.416Z,85.54
2023-03-07T06:54:35.655Z,85.58
2023-03-07T06:56:37.522Z,85.47
2023-03-07T06:58:38.499Z,85.26
2023-03-07T07:00:39.829Z,85.24
2023-03-07T07:02:41.953Z,84.65
2023-03-07T07:04:43.017Z,84.93
2023-03-07T07:08:46.373Z,84.73
2023-03-07T07:10:48.333Z,84.54
2023-03-07T07:12:50.053Z,84.25
2023-03-07T07:14:51.116Z,83.76
2023-03-07T07:16:52.810Z,84.14
2023-03-07T07:18:54.239Z,84.29
2023-03-07T07:20:56.033Z,84.33
2023-03-07T07:22:57.745Z,83.33
2023-03-07T07:24:59.515Z,83.33
2023-03-07T07:27:01.365Z,83.28
2023-03-07T07:29:02.991Z,82.37
2023-03-07T07:31:04.300Z,82.16
2023-03-07T07:33:05.636Z,82.29
2023-03-07T07:35:07.084Z,82.22
2023-03-07T07:37:08.382Z,82.45
2023-03-07T07:39:10.303Z,81.88
2023-03-07T07:41:12.055Z,81.92
2023-03-07T07:43:13.775Z,81.9
2023-03-07T07:45:15.083Z,81.14
2023-03-07T07:47:16.072Z,81.9
2023-03-07T07:51:18.687Z,81.29
2023-03-07T07:53:20.093Z,80.61
2023-03-07T07:55:21.540Z,80.75
2023-03-07T07:57:23.242Z,80.94
2023-03-07T07:59:24.584Z,80.06
2023-03-07T08:01:26.143Z,79.43
2023-03-07T08:03:27.468Z,79.36
2023-03-07T08:05:29.139Z,78.66
2023-03-07T08:07:30.184Z,79
2023-03-07T08:09:32.010Z,78.88
2023-03-07T08:11:33.603Z,79.01
2023-03-07T08:13:35.381Z,78.94
2023-03-07T08:15:36.342Z,78
2023-03-07T08:17:38.113Z,77.84
2023-03-07T08:19:39.793Z,77.66
2023-03-07T08:23:42.503Z,77.2
2023-03-07T08:25:44.283Z,77.72
2023-03-07T08:27:45.380Z,77.5
2023-03-07T08:29:46.677Z,76.82
2023-03-07T08:33:49.440Z,76.8
2023-03-07T08:35:50.475Z,76.72
2023-03-07T08:37:51.955Z,76.2
2023-03-07T08:39:53.581Z,75.34
2023-03-07T08:41:55.055Z,75.34
2023-03-07T08:43:56.546Z,75.25
2023-03-07T08:45:58.082Z,73.72
2023-03-07T08:47:59.707Z,74.05
2023-03-07T08:50:00.753Z,73.92
2023-03-07T08:52:02.487Z,73.18
2023-03-07T08:54:03.921Z,73.07
2023-03-07T08:56:05.440Z,73.1
2023-03-07T08:58:06.672Z,73.21
2023-03-07T09:00:08.555Z,73.82
2023-03-07T09:02:09.536Z,73.18
2023-03-07T09:04:10.731Z,73.2
2023-03-07T09:06:11.740Z,72.81
2023-03-07T09:08:13.523Z,72.1
2023-03-07T09:10:15.190Z,71.85
2023-03-07T09:12:16.434Z,72.32
2023-03-07T09:16:19.741Z,71.61
2023-03-07T09:18:20.569Z,70.64
2023-03-07T09:22:22.766Z,70.93
2023-03-07T09:24:23.763Z,70.07
2023-03-07T09:26:25.356Z,69.64
2023-03-07T09:28:26.589Z,69.91
2023-03-07T09:32:29.457Z,68.81
2023-03-07T09:34:30.770Z,68.41
2023-03-07T09:36:32.600Z,68.1
2023-03-07T09:38:34.575Z,67.55
2023-03-07T09:40:36.126Z,67.56
2023-03-07T09:42:37.390Z,67.08
2023-03-07T09:44:38.993Z,67.43
2023-03-07T09:46:40.497Z,66.74
2023-03-07T09:48:42.217Z,66.38
2023-03-07T09:50:44.099Z,66.88
2023-03-07T09:52:45.859Z,65.62
2023-03-07T09:54:47.047Z,65.9
2023-03-07T09:56:48.821Z,66.26
2023-03-07T09:58:51.233Z,65.85
2023-03-07T10:00:52.678Z,65.47
2023-03-07T10:04:55.511Z,64.34
2023-03-07T10:06:58.505Z,64.23
2023-03-07T10:08:59.266Z,63.91
2023-03-07T10:11:00.949Z,63.66
2023-03-07T10:13:01.946Z,62.43
2023-03-07T10:15:03.271Z,62.91
2023-03-07T10:17:04.831Z,62.72
2023-03-07T10:21:08.755Z,62.58
2023-03-07T10:23:09.924Z,62.54
2023-03-07T10:25:11.744Z,62.13
2023-03-07T10:27:14.041Z,61.54
2023-03-07T10:31:17.777Z,61.2
2023-03-07T10:33:19.183Z,61.62
2023-03-07T10:35:20.216Z,61.61
2023-03-07T10:37:22.513Z,61.01
2023-03-07T10:39:23.523Z,60.37
2023-03-07T10:41:24.602Z,59.46
2023-03-07T10:43:26.450Z,59.68
2023-03-07T10:45:27.956Z,59.13
2023-03-07T10:47:29.548Z,58.83
2023-03-07T10:49:31.208Z,58.94
2023-03-07T10:51:33.019Z,59.28
2023-03-07T10:53:34.756Z,58.55
2023-03-07T10:55:36.416Z,58.73
2023-03-07T10:57:37.781Z,58.5
2023-03-07T10:59:38.731Z,59.13
2023-03-07T11:01:40.336Z,58.55
2023-03-07T11:03:51.802Z,58.5
2023-03-07T11:05:43.146Z,57.92
2023-03-07T11:07:44.181Z,58.25
2023-03-07T11:09:45.510Z,58.48
2023-03-07T11:13:48.346Z,58.03
2023-03-07T11:15:49.950Z,58.4
2023-03-07T11:19:52.862Z,58.65
2023-03-07T11:21:55.427Z,58.62
2023-03-07T11:23:56.882Z,57.97
2023-03-07T11:25:58.567Z,57.48
2023-03-07T11:28:00.104Z,57.47
2023-03-07T11:30:01.528Z,57.2
2023-03-07T11:32:05.578Z,57.24
2023-03-07T11:34:04.366Z,57.4
2023-03-07T11:36:50.384Z,57.86
2023-03-07T11:38:51.971Z,57.78
2023-03-07T11:40:52.971Z,56.97
2023-03-07T11:42:54.255Z,57.2
2023-03-07T11:44:56.011Z,57.86
2023-03-07T11:46:57.237Z,57.24
2023-03-07T11:48:58.364Z,57.42
2023-03-07T11:50:59.854Z,56.62
2023-03-07T11:53:01.681Z,56.25
2023-03-07T11:55:02.971Z,56.77
2023-03-07T11:57:04.230Z,56.8
2023-03-07T11:59:05.906Z,56.38
2023-03-07T12:01:07.709Z,55.92
2023-03-07T12:03:09.533Z,56.26
2023-03-07T12:07:12.540Z,55.53
2023-03-07T12:09:13.852Z,55.28
2023-03-07T12:11:15.536Z,54.67
2023-03-07T12:13:16.899Z,54.51
2023-03-07T12:15:18.433Z,54.58
2023-03-07T12:17:20.292Z,54.77
2023-03-07T12:19:22.231Z,54.48
2023-03-07T12:21:23.677Z,54.36
2023-03-07T12:23:25.140Z,51.84
2023-03-07T12:25:26.374Z,53.32
2023-03-07T12:27:28.008Z,53.53
2023-03-07T12:29:29.068Z,53.64
2023-03-07T12:31:30.820Z,53.69
2023-03-07T12:33:31.950Z,53.59
2023-03-07T12:35:33.303Z,54
2023-03-07T12:37:34.404Z,54.05
2023-03-07T12:39:36.035Z,53.97
2023-03-07T12:41:37.747Z,54.73
2023-03-07T12:43:39.249Z,55.08
2023-03-07T12:45:40.928Z,55.35
2023-03-07T12:49:49.589Z,56.34
2023-03-07T12:51:44.976Z,56.67
2023-03-07T12:53:46.343Z,57.37
2023-03-07T12:55:47.784Z,56.68
2023-03-07T12:57:49.416Z,57.23
2023-03-07T12:59:50.579Z,57.37
2023-03-07T13:01:52.056Z,57.43
2023-03-07T13:03:53.893Z,57.12
2023-03-07T13:05:55.475Z,57.32
2023-03-07T13:07:57.022Z,57.37
2023-03-07T13:09:58.802Z,57.09
2023-03-07T13:12:00.144Z,57.35
2023-03-07T13:14:01.456Z,57.04
2023-03-07T13:16:02.883Z,57.06
2023-03-07T13:18:04.787Z,57.39
2023-03-07T13:20:06.470Z,57.49
2023-03-07T13:22:07.939Z,57.66
2023-03-07T13:24:09.053Z,57.37
2023-03-07T13:26:11.014Z,57.29
2023-03-07T13:28:12.090Z,57.75
2023-03-07T13:32:14.571Z,57.64
2023-03-07T13:34:16.454Z,57.61
2023-03-07T13:36:18.282Z,58.15
2023-03-07T13:38:20.153Z,57.82
2023-03-07T13:40:21.434Z,57.66
2023-03-07T13:42:22.938Z,58.16
2023-03-07T13:44:23.933Z,57.48
2023-03-07T13:46:25.816Z,57.48
2023-03-07T13:48:27.471Z,57.76
2023-03-07T13:50:29.200Z,58.33
2023-03-07T13:52:30.601Z,57.99
2023-03-07T13:54:31.842Z,57.34
2023-03-07T13:56:33.094Z,57.85
2023-03-07T13:58:34.199Z,57.46
2023-03-07T14:00:35.271Z,56.86
2023-03-07T14:04:40.594Z,56.5
2023-03-07T14:06:38.920Z,57.68
2023-03-07T14:08:40.060Z,56.85
2023-03-07T14:10:41.212Z,56.87
2023-03-07T14:14:43.838Z,56.65
2023-03-07T14:16:45.032Z,56.94
2023-03-07T14:18:46.145Z,56.91
2023-03-07T14:20:47.319Z,57.28
2023-03-07T14:22:50.118Z,56.29
2023-03-07T14:24:51.086Z,56.72
2023-03-07T14:26:52.920Z,56.46
2023-03-07T14:28:54.535Z,56.18
2023-03-07T14:30:55.901Z,56.02
2023-03-07T14:32:57.217Z,56.27
2023-03-07T14:34:58.968Z,56.23
2023-03-07T14:37:00.676Z,56.03
2023-03-07T14:39:02.556Z,56.13
2023-03-07T14:41:03.876Z,56.2
2023-03-07T14:43:05.016Z,56.26
2023-03-07T14:45:06.159Z,56.85
2023-03-07T14:47:07.232Z,56.96
2023-03-07T14:49:08.371Z,56.7
2023-03-07T14:51:09.628Z,56.97
2023-03-07T14:53:11.000Z,57.44
2023-03-07T14:55:12.771Z,57.23
2023-03-07T14:57:13.881Z,57.63
2023-03-07T14:59:26.228Z,57.54
2023-03-07T15:03:18.764Z,57.95
2023-03-07T15:05:20.422Z,58.06
2023-03-07T15:07:22.332Z,58.59
2023-03-07T15:09:23.822Z,58.78
2023-03-07T15:13:27.092Z,59.11
2023-03-07T15:15:28.575Z,58.5
2023-03-07T15:17:30.411Z,58.63
2023-03-07T15:19:31.780Z,59.12
2023-03-07T15:21:32.759Z,58.82
2023-03-07T15:23:33.849Z,59.04
2023-03-07T15:25:35.162Z,59.25
2023-03-07T15:27:36.507Z,58.9
2023-03-07T15:29:37.951Z,58.87
2023-03-07T15:31:39.867Z,59.19
2023-03-07T15:33:41.187Z,59.18
2023-03-07T15:35:43.171Z,58.59
2023-03-07T15:37:44.843Z,58.93
2023-03-07T15:39:46.686Z,58.91
2023-03-07T15:41:48.477Z,58.91
2023-03-07T15:45:52.120Z,58.8
2023-03-07T15:47:54.018Z,59.1
2023-03-07T15:49:55.742Z,58.69
2023-03-07T15:51:56.946Z,58.73
2023-03-07T15:56:00.075Z,58.77
2023-03-07T15:58:01.084Z,58.66
2023-03-07T16:00:02.246Z,58.97
2023-03-07T16:02:03.495Z,59.1
2023-03-07T16:04:05.305Z,58.5
2023-03-07T16:06:06.562Z,58.88
2023-03-07T16:08:08.506Z,59.24
2023-03-07T16:10:10.244Z,58.75
2023-03-07T16:12:11.284Z,58.83
2023-03-07T16:14:13.131Z,58.5
2023-03-07T16:16:14.928Z,58.35
2023-03-07T16:18:16.517Z,59.07
2023-03-07T16:20:18.359Z,58.72
2023-03-07T16:22:19.647Z,58.95
2023-03-07T16:24:21.254Z,58.72
2023-03-07T16:26:22.701Z,58.84
2023-03-07T16:28:23.914Z,59.18
2023-03-07T16:30:25.859Z,58.8
2023-03-07T16:32:27.139Z,58.75
2023-03-07T16:34:28.639Z,58.31
2023-03-07T16:38:31.554Z,58.84
2023-03-07T16:40:32.795Z,59.1
2023-03-07T16:42:34.106Z,59.11
2023-03-07T16:44:35.488Z,59.17
2023-03-07T16:46:37.181Z,59.64
2023-03-07T16:48:38.744Z,59.91
2023-03-07T16:50:40.296Z,60.55
2023-03-07T16:52:43.292Z,60.77
2023-03-07T16:54:43.694Z,60.88
2023-03-07T16:56:45.162Z,61.67
2023-03-07T16:58:46.317Z,62.23
2023-03-07T17:00:48.166Z,62.81
2023-03-07T17:02:49.698Z,63.12
2023-03-07T17:04:51.227Z,63.57
2023-03-07T17:07:04.022Z,63.72
2023-03-07T17:08:54.441Z,64.26
2023-03-07T17:10:55.619Z,64.33
2023-03-07T17:12:57.384Z,64.5
2023-03-07T17:14:58.814Z,64.87
2023-03-07T17:16:59.831Z,65.07
2023-03-07T17:21:02.981Z,64.97
2023-03-07T17:23:04.917Z,65.34
2023-03-07T17:25:06.243Z,65.33
2023-03-07T17:27:07.467Z,65.72
2023-03-07T17:29:08.488Z,66.04
2023-03-07T17:31:09.868Z,66.41
2023-03-07T17:33:11.260Z,66.41
2023-03-07T17:35:12.851Z,66.38
2023-03-07T17:37:14.827Z,66.84
2023-03-07T17:39:16.114Z,66.66
2023-03-07T17:41:17.980Z,66.58
2023-03-07T17:43:19.459Z,66.86
2023-03-07T17:45:21.039Z,66.86
2023-03-07T17:47:22.874Z,67.01
2023-03-07T17:49:23.841Z,66.64
2023-03-07T17:53:27.180Z,66.39
2023-03-07T17:55:28.476Z,66.99
2023-03-07T17:57:30.343Z,66.65
2023-03-07T17:59:31.888Z,66.75
2023-03-07T18:03:34.352Z,67.06
2023-03-07T18:05:36.190Z,67.34
2023-03-07T18:07:37.772Z,67.05
2023-03-07T18:09:38.912Z,67.46
2023-03-07T18:11:40.293Z,67.42
2023-03-07T18:13:41.891Z,67.37
2023-03-07T18:15:42.929Z,67.27
2023-03-07T18:17:48.602Z,67.09
2023-03-07T18:19:46.271Z,67.13
2023-03-07T18:20:30.148Z,66.86
2023-03-07T18:22:31.256Z,67.43
2023-03-07T18:24:32.562Z,67.31
2023-03-07T18:26:34.269Z,67.25
2023-03-07T18:28:35.756Z,66.91
2023-03-07T18:30:37.690Z,66.94
2023-03-07T18:32:39.402Z,67.02
2023-03-07T18:34:40.787Z,67.24
2023-03-07T18:36:42.458Z,67.18
2023-03-07T18:38:43.578Z,67.46
2023-03-07T18:40:45.574Z,67.39
2023-03-07T18:42:47.311Z,67.39
2023-03-07T18:46:50.583Z,66.91
2023-03-07T18:48:51.632Z,67.09
2023-03-07T18:50:53.025Z,66.65
2023-03-07T18:52:54.793Z,66.19
2023-03-07T18:56:58.021Z,66.45
2023-03-07T18:58:59.033Z,66.74
2023-03-07T19:01:00.262Z,66.61
2023-03-07T19:03:02.196Z,66.7
2023-03-07T19:05:03.222Z,66.27
2023-03-07T19:07:04.791Z,66.32
2023-03-07T19:09:06.012Z,66.36
2023-03-07T19:11:07.078Z,66.09
2023-03-07T19:13:08.188Z,66.1
2023-03-07T19:15:09.680Z,65.98
2023-03-07T19:17:10.996Z,65.86
2023-03-07T19:19:12.456Z,65.94
2023-03-07T19:21:14.139Z,65.33
2023-03-07T19:23:15.547Z,65.4
2023-03-07T19:25:17.055Z,65.42
2023-03-07T19:27:18.652Z,65.31
2023-03-07T19:29:20.225Z,65.35
2023-03-07T19:31:21.582Z,64.8
2023-03-07T19:33:22.792Z,64.99
2023-03-07T19:35:23.825Z,65.01
2023-03-07T19:39:26.856Z,64.97
2023-03-07T19:41:28.779Z,65.04
2023-03-07T19:43:30.738Z,64.78
2023-03-07T19:45:32.042Z,64.56
2023-03-07T19:47:33.573Z,64.51
2023-03-07T19:49:35.184Z,64.57
2023-03-07T19:51:36.531Z,64.52
2023-03-07T19:53:37.724Z,64.52
2023-03-07T19:55:39.205Z,64.78
2023-03-07T19:57:40.747Z,64.31
2023-03-07T19:59:42.797Z,64.89
2023-03-07T20:01:44.540Z,63.91
2023-03-07T20:03:46.261Z,64.66
2023-03-07T20:05:47.323Z,64.75
2023-03-07T20:07:48.309Z,64.63
2023-03-07T20:11:51.189Z,64.59
2023-03-07T20:13:52.626Z,64.41
2023-03-07T20:15:54.057Z,64.3
2023-03-07T20:17:55.089Z,64.37
2023-03-07T20:21:58.808Z,64.26
2023-03-07T20:24:00.209Z,64.38
2023-03-07T20:26:01.501Z,64.26
2023-03-07T20:28:04.928Z,64.45
2023-03-07T20:30:04.745Z,64.37
2023-03-07T20:32:06.058Z,64
2023-03-07T20:34:07.063Z,64.17
2023-03-07T20:36:09.012Z,64.37
2023-03-07T20:38:10.787Z,64.57
2023-03-07T20:40:11.851Z,64.37
2023-03-07T20:42:13.262Z,64.57
2023-03-07T20:44:15.212Z,64.04
2023-03-07T20:46:16.409Z,64.36
2023-03-07T20:48:17.819Z,64.13
2023-03-07T20:50:19.780Z,64.01
2023-03-07T20:54:22.674Z,64.35
2023-03-07T20:56:24.438Z,64.42
2023-03-07T20:58:25.857Z,64.47
2023-03-07T21:00:27.352Z,64.53
2023-03-07T21:04:30.139Z,64.64
2023-03-07T21:06:31.577Z,64.21
2023-03-07T21:08:32.609Z,64.49
2023-03-07T21:10:33.991Z,64.22
2023-03-07T21:12:35.938Z,64.45
2023-03-07T21:14:37.254Z,64.58
2023-03-07T21:16:39.153Z,64.49
2023-03-07T21:18:40.859Z,64.69
2023-03-07T21:20:42.608Z,64.56
2023-03-07T21:22:43.631Z,64.46
2023-03-07T21:24:44.971Z,64.31
2023-03-07T21:26:46.135Z,64.16
2023-03-07T21:28:47.120Z,64.27
2023-03-07T21:30:49.702Z,64.27
2023-03-07T21:32:49.569Z,64.09
2023-03-07T21:34:51.269Z,63.99
2023-03-07T21:36:52.372Z,64.06
2023-03-07T21:38:53.788Z,64.07
2023-03-07T21:40:55.315Z,64.04
2023-03-07T21:42:56.591Z,64.16
2023-03-07T21:44:58.149Z,64.23
2023-03-07T21:46:59.745Z,64.39
2023-03-07T21:49:01.401Z,64.42
2023-03-07T21:53:04.433Z,64.33
2023-03-07T21:55:05.889Z,64.67
2023-03-07T21:57:07.772Z,64.36
2023-03-07T21:59:08.855Z,64.58
2023-03-07T22:03:11.954Z,63.74
2023-03-07T22:05:13.858Z,63.99
2023-03-07T22:07:15.077Z,64.31
2023-03-07T22:09:16.062Z,64.33
2023-03-07T22:11:18.030Z,64.14
2023-03-07T22:13:19.546Z,63.42
2023-03-07T22:15:20.611Z,64.02
2023-03-07T22:17:22.028Z,63.85
2023-03-07T22:19:23.211Z,63.66
2023-03-07T22:21:24.667Z,63.48
2023-03-07T22:23:26.360Z,63.52
2023-03-07T22:25:27.964Z,63.81
2023-03-07T22:27:29.881Z,63.66
2023-03-07T22:29:31.830Z,63.86
2023-03-07T22:31:33.691Z,64.01
2023-03-07T22:33:34.875Z,63.85
2023-03-07T22:35:36.718Z,63.73
2023-03-07T22:37:37.753Z,63.7
2023-03-07T22:39:39.475Z,64.11
2023-03-07T22:41:40.693Z,63.93
2023-03-07T22:45:43.968Z,63.73
2023-03-07T22:47:45.328Z,63.68
2023-03-07T22:49:47.129Z,63.82
2023-03-07T22:51:48.520Z,63.6
2023-03-07T22:53:50.125Z,63.59
2023-03-07T22:55:52.346Z,63.17
2023-03-07T22:57:53.129Z,63.13
2023-03-07T22:59:54.628Z,63.02
2023-03-07T23:01:55.913Z,63.39
2023-03-07T23:03:57.629Z,63.32
2023-03-07T23:05:59.481Z,62.89
2023-03-07T23:08:00.692Z,63.09
2023-03-07T23:10:02.586Z,63.23
2023-03-07T23:12:04.178Z,63.46
2023-03-07T23:14:05.755Z,63.18
2023-03-07T23:16:07.436Z,63.12
2023-03-07T23:18:09.140Z,62.91
2023-03-07T23:20:10.595Z,63.09
2023-03-07T23:22:11.778Z,63.29
2023-03-07T23:24:13.254Z,63.4
2023-03-07T23:28:16.205Z,63.08
2023-03-07T23:30:17.159Z,62.67
2023-03-07T23:32:18.443Z,62.71
2023-03-07T23:34:19.565Z,62.33
2023-03-07T23:36:20.592Z,62.72
2023-03-07T23:38:21.867Z,62.91
2023-03-07T23:40:22.893Z,62.92
2023-03-07T23:42:24.708Z,63.14
2023-03-07T23:44:26.235Z,63.12
2023-03-07T23:46:27.317Z,62.81
2023-03-07T23:48:28.851Z,63.07
2023-03-07T23:50:30.149Z,62.83
2023-03-07T23:52:31.972Z,62.57
2023-03-07T23:54:33.526Z,62.85
2023-03-07T23:56:35.312Z,62.68
